Time;durP1;ratioP1;P1;durP2;ratioP2;P2;SDS_P1;SDS_P2;PMS_P1;PMS_P2;Temp;Humidity;BMP_temperature;BMP_pressure;BME280_temperature;BME280_humidity;BME280_pressure;Samples;Min_cycle;Max_cycle;Signal;HPM_P1;HPM_P2
2021/09/13 00:02:01;;;;;;;2.83;1.27;;;19.50;60.00;;;;;;2357480;53;20949;-74
2021/09/13 00:04:30;;;;;;;2.30;1.17;;;19.50;60.10;;;;;;2584799;52;20945;-73
2021/09/13 00:06:56;;;;;;;2.12;1.00;;;19.50;60.20;;;;;;2362047;53;20946;-73
2021/09/13 00:09:23;;;;;;;2.00;0.98;;;19.50;60.20;;;;;;2425247;52;20978;-73
2021/09/13 00:11:50;;;;;;;2.85;0.95;;;19.40;60.10;;;;;;2362423;52;20962;-76
2021/09/13 00:14:16;;;;;;;3.12;1.00;;;19.40;60.20;;;;;;2359810;53;20953;-72
2021/09/13 00:16:42;;;;;;;2.62;1.00;;;19.40;60.20;;;;;;2356990;53;20913;-73
2021/09/13 00:19:09;;;;;;;1.67;0.90;;;19.40;60.20;;;;;;2557139;52;20954;-72
2021/09/13 00:21:35;;;;;;;1.80;0.90;;;19.40;60.30;;;;;;2357324;53;20926;-72
2021/09/13 00:24:01;;;;;;;1.90;0.95;;;19.40;60.30;;;;;;2357124;53;20917;-71
2021/09/13 00:26:27;;;;;;;1.80;0.90;;;19.40;60.30;;;;;;2360894;53;20983;-71
2021/09/13 00:28:54;;;;;;;2.42;1.20;;;19.30;60.20;;;;;;2357201;53;20918;-74
2021/09/13 00:31:20;;;;;;;2.50;1.23;;;19.30;60.30;;;;;;2357435;52;20934;-73
2021/09/13 00:33:46;;;;;;;2.28;1.15;;;19.30;60.40;;;;;;2357776;52;21461;-72
2021/09/13 00:36:12;;;;;;;2.42;1.27;;;19.30;60.50;;;;;;2361056;52;21816;-71
2021/09/13 00:38:38;;;;;;;3.40;1.12;;;19.30;60.50;;;;;;2338694;53;21085;-74
2021/09/13 00:41:05;;;;;;;2.00;1.00;;;19.30;60.50;;;;;;2361168;52;20963;-76
2021/09/13 00:43:31;;;;;;;2.78;1.20;;;19.30;60.50;;;;;;2525707;52;20987;-74
2021/09/13 00:45:57;;;;;;;2.15;1.02;;;19.30;60.60;;;;;;2339893;53;20961;-72
2021/09/13 00:48:24;;;;;;;3.85;1.12;;;19.20;60.50;;;;;;2348443;53;20989;-72
2021/09/13 00:50:51;;;;;;;1.92;0.98;;;19.20;60.60;;;;;;2605859;52;21307;-73
2021/09/13 00:53:17;;;;;;;1.92;1.00;;;19.20;60.70;;;;;;2586397;52;20989;-72
2021/09/13 00:55:53;;;;;;;2.15;1.08;;;19.20;60.60;;;;;;2369155;52;20967;-73
2021/09/13 00:58:28;;;;;;;3.78;1.20;;;19.20;60.70;;;;;;2515237;52;20979;-72
2021/09/13 01:00:54;;;;;;;2.08;1.08;;;19.20;60.70;;;;;;2475519;52;21009;-73
2021/09/13 01:03:22;;;;;;;2.05;0.95;;;19.20;60.70;;;;;;2352290;52;20967;-72
2021/09/13 01:05:48;;;;;;;2.42;1.25;;;19.10;60.70;;;;;;2357036;53;21426;-73
2021/09/13 01:08:15;;;;;;;2.40;1.17;;;19.20;60.70;;;;;;2608066;52;21005;-74
2021/09/13 01:10:41;;;;;;;2.12;1.15;;;19.10;60.60;;;;;;2337961;53;20959;-72
2021/09/13 01:13:07;;;;;;;3.37;1.37;;;19.10;60.60;;;;;;2363702;53;20984;-70
2021/09/13 01:15:40;;;;;;;3.03;1.27;;;19.10;60.70;;;;;;2370339;53;21100;-73
2021/09/13 01:18:07;;;;;;;2.50;1.10;;;19.10;60.80;;;;;;2361246;52;20953;-73
2021/09/13 01:20:34;;;;;;;2.47;1.33;;;19.10;60.70;;;;;;2361634;52;20935;-73
2021/09/13 01:23:05;;;;;;;2.30;1.10;;;19.00;60.70;;;;;;2607516;52;21495;-73
2021/09/13 01:25:31;;;;;;;2.15;1.02;;;19.00;60.70;;;;;;2357132;53;21089;-72
2021/09/13 01:27:58;;;;;;;2.28;1.10;;;19.00;60.80;;;;;;2357349;52;20941;-72
2021/09/13 01:30:27;;;;;;;2.60;1.40;;;19.00;60.80;;;;;;2357301;53;21543;-73
2021/09/13 01:32:53;;;;;;;1.98;1.05;;;18.90;60.70;;;;;;2361508;52;21057;-73
2021/09/13 01:35:20;;;;;;;3.03;1.20;;;18.90;61.20;;;;;;2357351;53;20910;-73
2021/09/13 01:37:46;;;;;;;3.75;1.17;;;18.90;60.70;;;;;;2608363;52;20914;-72
2021/09/13 01:40:13;;;;;;;3.00;1.27;;;18.90;60.80;;;;;;2416389;52;21291;-72
2021/09/13 01:42:41;;;;;;;2.55;1.40;;;18.80;60.70;;;;;;2357239;53;21613;-72
2021/09/13 01:45:08;;;;;;;2.70;1.50;;;18.80;60.80;;;;;;2356921;53;20961;-74
2021/09/13 01:47:34;;;;;;;2.50;1.30;;;18.80;60.90;;;;;;2357231;53;20925;-76
2021/09/13 01:50:00;;;;;;;3.45;1.67;;;18.80;60.90;;;;;;2357686;53;21927;-73
2021/09/13 01:52:29;;;;;;;2.30;1.10;;;18.80;61.00;;;;;;2357300;53;20930;-72
2021/09/13 01:54:55;;;;;;;2.25;1.12;;;18.70;61.00;;;;;;2357330;53;20961;-74
2021/09/13 01:57:22;;;;;;;2.50;1.23;;;18.70;61.00;;;;;;2361716;52;21054;-73
2021/09/13 01:59:51;;;;;;;2.10;1.15;;;18.70;61.00;;;;;;2401772;52;21468;-74
2021/09/13 02:02:18;;;;;;;2.37;1.10;;;18.70;60.90;;;;;;2544505;52;20999;-74
2021/09/13 02:04:45;;;;;;;2.42;1.20;;;18.70;60.90;;;;;;2351522;53;21897;-73
2021/09/13 02:07:11;;;;;;;3.05;1.42;;;18.60;60.90;;;;;;2363457;53;20975;-73
2021/09/13 02:09:38;;;;;;;3.08;1.25;;;18.60;60.80;;;;;;2350635;53;20946;-70
2021/09/13 02:12:05;;;;;;;2.72;1.33;;;18.60;60.90;;;;;;2486299;52;21113;-73
2021/09/13 02:14:31;;;;;;;2.58;1.20;;;18.60;61.00;;;;;;2347195;53;20922;-73
2021/09/13 02:16:58;;;;;;;2.47;1.27;;;18.50;60.90;;;;;;2458367;52;21054;-72
2021/09/13 02:19:24;;;;;;;3.75;1.40;;;18.50;61.00;;;;;;2345008;53;20905;-73
2021/09/13 02:21:51;;;;;;;2.10;1.20;;;18.50;61.10;;;;;;2366117;52;20978;-72
2021/09/13 02:24:17;;;;;;;2.53;1.20;;;18.50;61.20;;;;;;2343313;53;20958;-73
2021/09/13 02:26:45;;;;;;;4.07;1.60;;;18.50;61.20;;;;;;2361701;52;20987;-72
2021/09/13 02:29:11;;;;;;;2.75;1.42;;;18.40;61.20;;;;;;2360841;53;20973;-73
2021/09/13 02:31:45;;;;;;;4.43;1.40;;;18.40;61.20;;;;;;2503556;52;20950;-72
2021/09/13 02:34:18;;;;;;;2.28;1.10;;;18.40;61.20;;;;;;2356237;53;20934;-72
2021/09/13 02:36:44;;;;;;;3.00;0.98;;;18.40;61.30;;;;;;2356655;53;22009;-71
2021/09/13 02:39:10;;;;;;;2.62;1.30;;;18.40;61.30;;;;;;2360876;52;21010;-72
2021/09/13 02:41:38;;;;;;;3.00;1.27;;;18.40;61.20;;;;;;2361471;53;20967;-74
2021/09/13 02:44:04;;;;;;;2.50;1.50;;;18.30;61.10;;;;;;2361628;52;20989;-72
2021/09/13 02:46:30;;;;;;;3.05;1.62;;;18.30;61.10;;;;;;2353591;53;20989;-73
2021/09/13 02:48:58;;;;;;;3.20;1.48;;;18.30;61.10;;;;;;2361864;52;21448;-72
2021/09/13 02:51:24;;;;;;;2.42;1.15;;;18.30;61.20;;;;;;2351155;52;20925;-71
2021/09/13 02:53:50;;;;;;;2.28;1.35;;;18.20;61.10;;;;;;2361622;52;21010;-71
2021/09/13 02:56:18;;;;;;;1.90;0.98;;;18.20;61.20;;;;;;2608150;52;21056;-73
2021/09/13 02:58:46;;;;;;;3.00;1.10;;;18.20;61.20;;;;;;2356826;53;21048;-76
2021/09/13 03:01:12;;;;;;;2.78;1.27;;;18.20;61.20;;;;;;2349264;53;20951;-71
2021/09/13 03:03:40;;;;;;;2.45;1.08;;;18.10;61.10;;;;;;2348914;53;20993;-71
2021/09/13 03:06:06;;;;;;;2.33;1.23;;;18.10;61.10;;;;;;2366654;52;20994;-73
2021/09/13 03:08:33;;;;;;;2.33;1.30;;;18.10;61.10;;;;;;2344399;52;21054;-73
2021/09/13 03:10:59;;;;;;;3.28;1.20;;;18.10;61.00;;;;;;2607180;52;20930;-73
2021/09/13 03:13:26;;;;;;;3.85;1.37;;;18.00;61.00;;;;;;2361417;52;20918;-71
2021/09/13 03:15:52;;;;;;;3.40;1.10;;;18.00;61.10;;;;;;2606202;52;20957;-73
2021/09/13 03:18:18;;;;;;;2.17;1.10;;;18.00;61.10;;;;;;2362140;52;20946;-71
2021/09/13 03:20:46;;;;;;;2.85;1.40;;;17.90;61.00;;;;;;2410677;52;21000;-71
2021/09/13 03:23:13;;;;;;;3.30;1.30;;;17.90;61.00;;;;;;2588537;52;20986;-71
2021/09/13 03:25:39;;;;;;;2.60;1.00;;;17.90;61.10;;;;;;2498398;52;20986;-72
2021/09/13 03:28:05;;;;;;;2.60;1.17;;;17.80;61.00;;;;;;2349981;53;20993;-73
2021/09/13 03:30:31;;;;;;;2.85;1.08;;;17.90;61.20;;;;;;2357363;53;20894;-72
2021/09/13 03:32:59;;;;;;;2.90;1.30;;;17.80;61.10;;;;;;2547186;52;20967;-72
2021/09/13 03:35:26;;;;;;;2.92;1.35;;;17.80;61.10;;;;;;2353271;53;21012;-72
2021/09/13 03:37:53;;;;;;;2.95;1.45;;;17.70;61.00;;;;;;2344351;53;21547;-72
2021/09/13 03:40:19;;;;;;;3.47;1.40;;;17.70;61.10;;;;;;2352493;53;22085;-72
2021/09/13 03:42:46;;;;;;;2.75;1.52;;;17.70;61.10;;;;;;2340962;53;20933;-72
2021/09/13 03:45:13;;;;;;;2.50;1.48;;;17.70;61.10;;;;;;2364228;52;21037;-72
2021/09/13 03:47:39;;;;;;;3.40;1.42;;;17.60;61.10;;;;;;2343338;53;20947;-71
2021/09/13 03:50:09;;;;;;;2.80;1.40;;;17.60;61.20;;;;;;2339393;53;22569;-71
2021/09/13 03:52:35;;;;;;;2.20;1.10;;;17.60;61.20;;;;;;2373922;53;21014;-74
2021/09/13 03:55:01;;;;;;;2.10;1.00;;;17.50;61.10;;;;;;2345967;53;20953;-74
2021/09/13 03:57:27;;;;;;;2.35;1.17;;;17.50;61.20;;;;;;2350630;53;24918;-73
2021/09/13 03:59:54;;;;;;;4.30;1.42;;;17.50;61.20;;;;;;2359881;52;22110;-73
2021/09/13 04:02:27;;;;;;;2.15;1.30;;;17.50;61.20;;;;;;2578561;52;21026;-72
2021/09/13 04:05:02;;;;;;;3.53;1.23;;;17.50;61.30;;;;;;2348425;52;21120;-72
2021/09/13 04:07:36;;;;;;;2.80;1.30;;;17.40;61.20;;;;;;2331836;53;20981;-73
2021/09/13 04:10:25;;;;;;;2.50;1.20;;;17.40;61.20;;;;;;2555882;52;21108;-73
2021/09/13 04:12:51;;;;;;;2.40;1.27;;;17.40;61.20;;;;;;2345749;53;21386;-72
2021/09/13 04:15:18;;;;;;;2.87;1.42;;;17.40;61.20;;;;;;2345653;53;20993;-73
2021/09/13 04:17:44;;;;;;;2.20;1.08;;;17.30;61.20;;;;;;2596456;52;22131;-72
2021/09/13 04:20:11;;;;;;;3.08;1.30;;;17.30;61.30;;;;;;2350570;52;21034;-73
2021/09/13 04:22:37;;;;;;;2.80;1.40;;;17.30;61.30;;;;;;2416641;53;21481;-74
2021/09/13 04:25:04;;;;;;;2.67;1.30;;;17.30;61.30;;;;;;2347238;53;21548;-73
2021/09/13 04:27:31;;;;;;;2.45;1.40;;;17.20;61.20;;;;;;2352320;52;21014;-73
2021/09/13 04:29:57;;;;;;;2.85;1.37;;;17.20;61.20;;;;;;2347649;53;20937;-72
2021/09/13 04:32:24;;;;;;;2.50;1.10;;;17.20;61.30;;;;;;2351975;52;21884;-73
2021/09/13 04:34:50;;;;;;;2.80;1.30;;;17.20;61.30;;;;;;2596915;52;22069;-73
2021/09/13 04:37:17;;;;;;;2.75;1.10;;;17.20;61.30;;;;;;2444207;52;22096;-73
2021/09/13 04:39:43;;;;;;;4.10;1.50;;;17.10;61.20;;;;;;2597955;52;20925;-73
2021/09/13 04:42:10;;;;;;;2.83;1.40;;;17.10;61.20;;;;;;2357395;52;20971;-75
2021/09/13 04:44:38;;;;;;;2.10;1.10;;;17.10;61.20;;;;;;2341580;53;21693;-72
2021/09/13 04:47:04;;;;;;;2.58;1.27;;;17.10;61.30;;;;;;2348167;53;21460;-74
2021/09/13 04:49:30;;;;;;;3.15;1.70;;;17.00;61.30;;;;;;2348261;53;20950;-72
2021/09/13 04:51:57;;;;;;;2.67;1.37;;;17.10;61.50;;;;;;2348078;53;20969;-76
2021/09/13 04:54:23;;;;;;;2.70;1.20;;;17.00;61.40;;;;;;2596432;52;21974;-72
2021/09/13 04:56:49;;;;;;;3.12;1.67;;;17.00;61.50;;;;;;2347489;53;20934;-73
2021/09/13 04:59:15;;;;;;;4.62;1.50;;;17.00;61.60;;;;;;2347161;52;20961;-71
2021/09/13 05:01:42;;;;;;;2.47;1.30;;;17.00;61.60;;;;;;2354195;52;21006;-74
2021/09/13 05:04:09;;;;;;;2.22;1.20;;;17.00;61.60;;;;;;2345905;53;20941;-73
2021/09/13 05:06:39;;;;;;;3.20;1.37;;;17.00;61.70;;;;;;2451517;52;21116;-75
2021/09/13 05:09:05;;;;;;;2.75;1.30;;;16.90;61.60;;;;;;2334107;53;20996;-73
2021/09/13 05:11:31;;;;;;;2.65;1.40;;;17.00;61.70;;;;;;2348916;52;20959;-73
2021/09/13 05:13:57;;;;;;;2.50;1.10;;;16.90;61.60;;;;;;2373538;52;21676;-73
2021/09/13 05:16:24;;;;;;;2.33;1.23;;;16.90;61.70;;;;;;2346207;52;20993;-74
2021/09/13 05:18:50;;;;;;;2.47;1.30;;;16.90;61.70;;;;;;2503203;52;20981;-73
2021/09/13 05:21:16;;;;;;;4.68;1.65;;;16.90;61.70;;;;;;2347640;53;20949;-72
2021/09/13 05:23:43;;;;;;;3.33;1.40;;;16.90;61.70;;;;;;2346878;52;20910;-73
2021/09/13 05:26:09;;;;;;;2.90;1.40;;;16.90;61.80;;;;;;2346165;52;20941;-73
2021/09/13 05:28:41;;;;;;;2.42;1.10;;;16.90;61.80;;;;;;2352957;52;20939;-73
2021/09/13 05:31:08;;;;;;;2.70;1.40;;;16.90;62.00;;;;;;2594346;52;21946;-73
2021/09/13 05:33:34;;;;;;;3.10;1.58;;;16.90;61.90;;;;;;2346080;53;20941;-76
2021/09/13 05:36:06;;;;;;;3.10;1.37;;;16.90;62.00;;;;;;2346290;53;20922;-73
2021/09/13 05:38:35;;;;;;;;;;;16.90;62.10;;;;;;2396420;52;21384;-72
2021/09/13 05:41:01;;;;;;;2.95;1.27;;;16.90;62.10;;;;;;2568804;52;20290;-72
2021/09/13 05:43:27;;;;;;;2.67;1.30;;;16.90;61.80;;;;;;2595508;52;21321;-76
2021/09/13 05:45:54;;;;;;;3.40;1.30;;;16.90;61.90;;;;;;2346594;53;20921;-74
2021/09/13 05:48:24;;;;;;;5.10;1.60;;;16.80;61.80;;;;;;2351094;52;20919;-73
2021/09/13 05:50:51;;;;;;;3.85;1.50;;;16.80;62.00;;;;;;2349396;53;21396;-71
2021/09/13 05:53:18;;;;;;;3.30;1.55;;;16.90;62.20;;;;;;2346001;52;21514;-73
2021/09/13 05:55:44;;;;;;;2.58;1.30;;;16.80;62.20;;;;;;2354646;52;20969;-73
2021/09/13 05:58:10;;;;;;;3.05;1.58;;;16.80;62.30;;;;;;2333769;53;21013;-71
2021/09/13 06:00:37;;;;;;;2.60;1.20;;;16.90;62.40;;;;;;2594424;52;20926;-73
2021/09/13 06:03:03;;;;;;;2.50;1.30;;;16.80;62.40;;;;;;2350895;52;21013;-74
2021/09/13 06:05:29;;;;;;;2.33;1.15;;;16.90;62.60;;;;;;2402145;53;20942;-74
2021/09/13 06:07:55;;;;;;;2.72;1.35;;;16.90;62.70;;;;;;2343767;52;20922;-71
2021/09/13 06:10:22;;;;;;;3.00;1.60;;;16.90;62.70;;;;;;2471963;53;20974;-73
2021/09/13 06:12:48;;;;;;;3.00;1.60;;;16.90;62.80;;;;;;2347651;52;21048;-75
2021/09/13 06:15:14;;;;;;;3.05;1.83;;;17.00;62.90;;;;;;2341856;53;20962;-72
2021/09/13 06:17:41;;;;;;;3.15;1.80;;;17.00;63.00;;;;;;2330040;53;21405;-73
2021/09/13 06:20:07;;;;;;;3.87;1.70;;;17.00;63.00;;;;;;2341628;53;20973;-73
2021/09/13 06:22:34;;;;;;;2.65;1.50;;;17.00;63.10;;;;;;2533941;52;20934;-73
2021/09/13 06:25:00;;;;;;;2.90;1.45;;;17.10;63.20;;;;;;2344891;53;20949;-72
2021/09/13 06:27:27;;;;;;;2.60;1.30;;;17.20;63.30;;;;;;2346295;53;20993;-73
2021/09/13 06:29:54;;;;;;;3.30;1.67;;;17.10;63.30;;;;;;2374538;52;21285;-73
2021/09/13 06:32:20;;;;;;;2.70;1.67;;;17.20;64.20;;;;;;2346250;53;21072;-73
2021/09/13 06:34:47;;;;;;;3.65;1.90;;;17.30;64.00;;;;;;2353960;52;20951;-72
2021/09/13 06:37:13;;;;;;;3.33;1.98;;;17.30;64.90;;;;;;2336793;53;21098;-74
2021/09/13 06:39:40;;;;;;;3.03;1.80;;;17.50;65.70;;;;;;2395657;52;21082;-74
2021/09/13 06:42:06;;;;;;;3.55;1.70;;;17.70;66.10;;;;;;2380586;52;21780;-73
2021/09/13 06:44:32;;;;;;;2.95;1.48;;;17.80;66.00;;;;;;2348506;53;20954;-73
2021/09/13 06:47:09;;;;;;;3.20;1.65;;;18.00;65.90;;;;;;2345452;53;21578;-74
2021/09/13 06:49:35;;;;;;;3.30;1.90;;;18.10;65.70;;;;;;2351227;52;21090;-73
2021/09/13 06:52:02;;;;;;;3.30;2.10;;;18.20;65.40;;;;;;2350484;52;21006;-76
2021/09/13 06:54:29;;;;;;;3.55;1.77;;;18.30;65.30;;;;;;2348926;53;20915;-72
2021/09/13 06:56:56;;;;;;;3.30;2.08;;;18.40;65.20;;;;;;2354159;52;20963;-74
2021/09/13 06:59:22;;;;;;;2.65;1.52;;;18.50;65.10;;;;;;2338765;53;22104;-73
2021/09/13 07:01:48;;;;;;;3.37;1.90;;;18.60;65.10;;;;;;2351376;52;20982;-74
2021/09/13 07:04:15;;;;;;;5.45;1.62;;;18.70;65.10;;;;;;2346200;53;22211;-73
2021/09/13 07:06:42;;;;;;;3.00;1.45;;;18.70;65.80;;;;;;2349889;52;20966;-73
2021/09/13 07:09:08;;;;;;;3.45;1.83;;;18.80;65.20;;;;;;2346015;52;20958;-75
2021/09/13 07:11:35;;;;;;;3.28;1.65;;;18.90;65.30;;;;;;2346098;53;20922;-75
2021/09/13 07:14:05;;;;;;;4.70;2.05;;;18.90;65.30;;;;;;2347118;52;21015;-73
2021/09/13 07:16:31;;;;;;;3.72;2.20;;;19.00;65.40;;;;;;2349863;52;21009;-74
2021/09/13 07:18:58;;;;;;;4.53;2.17;;;19.10;65.50;;;;;;2350672;52;21837;-74
2021/09/13 07:21:24;;;;;;;4.07;2.62;;;19.10;65.40;;;;;;2333686;53;21085;-74
2021/09/13 07:23:50;;;;;;;5.45;2.37;;;19.20;65.50;;;;;;2485124;52;20963;-74
2021/09/13 07:26:17;;;;;;;4.82;2.30;;;19.30;65.40;;;;;;2346962;52;20978;-74
2021/09/13 07:28:43;;;;;;;4.05;2.00;;;19.30;65.30;;;;;;2595350;52;20922;-74
2021/09/13 07:31:09;;;;;;;3.50;1.98;;;19.40;65.30;;;;;;2363843;52;21452;-73
2021/09/13 07:33:35;;;;;;;4.70;2.03;;;19.50;65.40;;;;;;2348723;52;20974;-74
2021/09/13 07:36:02;;;;;;;3.40;1.80;;;19.50;65.50;;;;;;2339410;53;21415;-74
2021/09/13 07:38:28;;;;;;;3.05;1.90;;;19.60;65.40;;;;;;2332128;53;20985;-74
2021/09/13 07:40:54;;;;;;;2.87;1.65;;;19.70;65.60;;;;;;2343072;53;20941;-74
2021/09/13 07:43:21;;;;;;;3.30;2.20;;;19.70;65.60;;;;;;2347039;53;21052;-74
2021/09/13 07:45:47;;;;;;;3.78;2.30;;;19.80;65.70;;;;;;2352370;52;21314;-73
2021/09/13 07:48:13;;;;;;;3.30;1.98;;;19.90;65.70;;;;;;2334173;53;21813;-74
2021/09/13 07:50:40;;;;;;;3.60;1.83;;;20.00;65.90;;;;;;2321427;53;20934;-74
2021/09/13 07:53:07;;;;;;;3.20;1.90;;;20.10;65.80;;;;;;2351302;52;20965;-79
2021/09/13 07:55:33;;;;;;;3.85;2.25;;;20.20;65.80;;;;;;2347379;53;20985;-73
2021/09/13 07:57:59;;;;;;;3.15;2.03;;;20.30;65.80;;;;;;2348375;52;20966;-74
2021/09/13 08:00:34;;;;;;;3.62;2.05;;;20.40;65.70;;;;;;2569411;52;21451;-73
2021/09/13 08:03:01;;;;;;;3.25;2.00;;;20.50;65.70;;;;;;2349589;53;20992;-75
2021/09/13 08:05:27;;;;;;;3.80;2.42;;;20.50;65.60;;;;;;2357535;52;20963;-74
2021/09/13 08:07:53;;;;;;;6.30;2.62;;;20.60;65.70;;;;;;2347332;52;20953;-74
2021/09/13 08:10:20;;;;;;;4.37;2.80;;;20.70;65.70;;;;;;2512456;52;21001;-75
2021/09/13 08:12:46;;;;;;;4.65;2.72;;;20.80;65.60;;;;;;2328766;53;20945;-74
2021/09/13 08:15:12;;;;;;;4.57;3.10;;;20.90;65.60;;;;;;2346754;52;21412;-75
2021/09/13 08:17:38;;;;;;;5.28;3.00;;;21.00;65.50;;;;;;2470112;52;20938;-74
2021/09/13 08:20:06;;;;;;;4.05;2.75;;;21.10;65.40;;;;;;2586193;52;21031;-77
2021/09/13 08:22:32;;;;;;;3.92;2.60;;;21.10;65.50;;;;;;2477328;52;21018;-73
2021/09/13 08:24:58;;;;;;;4.07;2.78;;;21.20;65.60;;;;;;2339089;53;20982;-75
2021/09/13 08:27:25;;;;;;;3.65;2.30;;;21.30;65.60;;;;;;2411216;52;20990;-74
2021/09/13 08:29:51;;;;;;;4.00;2.50;;;21.40;65.50;;;;;;2341428;53;21014;-77
2021/09/13 08:32:17;;;;;;;4.20;2.58;;;21.50;65.70;;;;;;2331561;53;21578;-75
2021/09/13 08:34:44;;;;;;;3.85;2.42;;;21.60;65.70;;;;;;2346905;53;20926;-74
2021/09/13 08:37:10;;;;;;;3.55;2.28;;;21.70;65.80;;;;;;2355323;52;21117;-77
2021/09/13 08:39:36;;;;;;;4.82;2.50;;;21.80;65.80;;;;;;2334327;53;21044;-75
2021/09/13 08:42:02;;;;;;;4.65;2.83;;;21.90;65.90;;;;;;2346864;52;20941;-75
2021/09/13 08:44:31;;;;;;;5.07;2.67;;;22.00;65.90;;;;;;2350401;52;20998;-74
2021/09/13 08:47:15;;;;;;;4.10;2.47;;;22.10;65.70;;;;;;2398050;52;21065;-77
2021/09/13 08:49:41;;;;;;;3.70;2.33;;;22.20;65.50;;;;;;2339779;52;20929;-74
2021/09/13 08:52:07;;;;;;;4.37;2.28;;;22.30;65.30;;;;;;2347036;53;21045;-76
2021/09/13 08:54:36;;;;;;;4.75;2.30;;;22.40;65.00;;;;;;2346591;53;21076;-75
2021/09/13 08:57:05;;;;;;;3.47;1.95;;;22.50;64.90;;;;;;2490890;52;20985;-75
2021/09/13 08:59:35;;;;;;;3.42;2.22;;;22.60;64.80;;;;;;2350497;53;21989;-75
2021/09/13 09:02:01;;;;;;;3.72;2.35;;;22.70;64.70;;;;;;2348288;53;21413;-76
2021/09/13 09:04:35;;;;;;;3.20;2.00;;;22.70;64.80;;;;;;2333549;52;21008;-73
2021/09/13 09:07:08;;;;;;;3.10;1.90;;;22.80;64.70;;;;;;2352937;52;20959;-75
2021/09/13 09:09:34;;;;;;;4.35;2.78;;;22.90;64.60;;;;;;2348423;53;21932;-75
2021/09/13 09:12:02;;;;;;;3.85;2.37;;;23.00;64.80;;;;;;2348401;53;20969;-75
2021/09/13 09:14:52;;;;;;;4.45;2.50;;;23.10;65.40;;;;;;2347547;53;21097;-75
2021/09/13 09:17:28;;;;;;;4.40;2.25;;;23.20;64.10;;;;;;2347610;52;21076;-75
2021/09/13 09:20:05;;;;;;;3.70;2.45;;;23.20;64.00;;;;;;2347707;53;20970;-76
2021/09/13 09:22:33;;;;;;;3.35;1.90;;;23.30;63.80;;;;;;2351357;52;20970;-75
2021/09/13 09:25:01;;;;;;;4.45;2.28;;;23.40;64.20;;;;;;2349032;53;20997;-75
2021/09/13 09:27:28;;;;;;;4.00;2.25;;;23.50;64.30;;;;;;2343340;53;21001;-74
2021/09/13 09:29:55;;;;;;;3.78;1.87;;;23.60;64.20;;;;;;2347579;53;20910;-74
2021/09/13 09:32:25;;;;;;;3.20;2.20;;;23.70;64.30;;;;;;2552132;52;20922;-77
2021/09/13 09:34:52;;;;;;;4.93;2.37;;;23.80;64.20;;;;;;2329848;53;21029;-76
2021/09/13 09:37:19;;;;;;;6.70;2.40;;;23.80;64.00;;;;;;2348508;53;21012;-74
2021/09/13 09:39:53;;;;;;;4.62;2.22;;;23.90;63.80;;;;;;2352847;53;20970;-75
2021/09/13 09:42:36;;;;;;;4.75;2.08;;;24.00;63.60;;;;;;2353078;52;21377;-74
2021/09/13 09:45:48;;;;;;;3.22;1.85;;;24.10;63.40;;;;;;2350660;52;21300;-74
2021/09/13 09:48:14;;;;;;;3.60;2.03;;;24.20;63.40;;;;;;2353440;52;20978;-75
2021/09/13 09:50:41;;;;;;;4.35;2.05;;;24.20;63.80;;;;;;2329114;53;21584;-74
2021/09/13 09:53:18;;;;;;;3.30;1.85;;;24.30;63.60;;;;;;2349552;52;22213;-75
2021/09/13 09:55:49;;;;;;;3.42;2.25;;;24.40;63.20;;;;;;2348334;53;20949;-75
2021/09/13 09:58:16;;;;;;;3.60;2.20;;;24.40;63.30;;;;;;2352468;52;20959;-75
2021/09/13 10:00:45;;;;;;;2.92;1.73;;;24.50;63.30;;;;;;2327908;53;20945;-74
2021/09/13 10:03:12;;;;;;;3.60;2.05;;;24.60;63.40;;;;;;2352005;52;21002;-76
2021/09/13 10:05:38;;;;;;;3.00;1.67;;;24.60;63.50;;;;;;2347678;53;20938;-74
2021/09/13 10:08:06;;;;;;;4.57;2.47;;;24.70;63.40;;;;;;2347966;53;20945;-75
2021/09/13 10:10:32;;;;;;;5.47;2.10;;;24.80;63.30;;;;;;2358199;52;20934;-77
2021/09/13 10:13:01;;;;;;;3.70;2.35;;;24.80;63.10;;;;;;2333609;53;21034;-75
2021/09/13 10:15:28;;;;;;;4.40;1.87;;;24.90;62.80;;;;;;2347044;53;21103;-74
2021/09/13 10:17:57;;;;;;;3.47;2.10;;;25.00;62.80;;;;;;2347345;53;22019;-74
2021/09/13 10:20:24;;;;;;;4.37;2.35;;;25.00;62.70;;;;;;2352474;52;20976;-76
2021/09/13 10:22:52;;;;;;;3.00;1.70;;;25.10;62.70;;;;;;2347051;53;21045;-75
2021/09/13 10:25:18;;;;;;;2.80;1.52;;;25.20;62.70;;;;;;2348122;52;23050;-73
2021/09/13 10:27:47;;;;;;;3.45;1.65;;;25.20;62.60;;;;;;2348280;53;21009;-74
2021/09/13 10:30:18;;;;;;;3.75;2.10;;;25.40;62.40;;;;;;2353071;52;21968;-75
2021/09/13 10:32:46;;;;;;;2.70;1.58;;;25.40;62.10;;;;;;2348143;53;21060;-75
2021/09/13 10:35:13;;;;;;;3.40;1.98;;;25.50;62.10;;;;;;2577977;52;21009;-76
2021/09/13 10:37:49;;;;;;;4.90;1.90;;;25.50;61.80;;;;;;2346894;53;21430;-76
2021/09/13 10:40:28;;;;;;;2.67;1.60;;;25.60;61.70;;;;;;2474153;52;22024;-76
2021/09/13 10:42:58;;;;;;;2.60;1.73;;;25.70;61.40;;;;;;2339891;53;20958;-76
2021/09/13 10:45:42;;;;;;;4.85;2.12;;;25.70;61.30;;;;;;2350365;52;20970;-76
2021/09/13 10:48:27;;;;;;;2.60;1.60;;;25.80;60.70;;;;;;2346873;52;21320;-73
2021/09/13 10:50:54;;;;;;;2.60;1.70;;;25.80;60.80;;;;;;2349517;53;21122;-73
2021/09/13 10:53:30;;;;;;;3.12;1.85;;;25.90;61.10;;;;;;2349836;53;22039;-76
2021/09/13 10:56:06;;;;;;;3.33;1.80;;;26.00;60.70;;;;;;2554997;52;20954;-74
2021/09/13 10:58:44;;;;;;;4.20;2.00;;;26.00;60.90;;;;;;2369794;52;21006;-74
2021/09/13 11:01:20;;;;;;;3.00;1.80;;;26.00;60.50;;;;;;2587962;52;20938;-72
2021/09/13 11:04:23;;;;;;;3.58;2.10;;;26.10;60.50;;;;;;2425832;52;22289;-75
2021/09/13 11:06:50;;;;;;;3.15;1.80;;;26.20;60.40;;;;;;2347882;52;20950;-74
2021/09/13 11:09:20;;;;;;;2.80;1.67;;;26.20;60.30;;;;;;2351124;52;21475;-72
2021/09/13 11:11:53;;;;;;;3.30;1.80;;;26.30;60.00;;;;;;2421639;52;20969;-74
2021/09/13 11:14:20;;;;;;;3.65;1.90;;;26.30;59.60;;;;;;2346029;53;21513;-73
2021/09/13 11:16:48;;;;;;;3.37;1.67;;;26.30;59.70;;;;;;2345964;53;21068;-75
2021/09/13 11:19:15;;;;;;;3.10;1.73;;;26.30;59.70;;;;;;2590177;52;20960;-75
2021/09/13 11:21:43;;;;;;;2.80;1.80;;;26.40;59.80;;;;;;2350279;52;21505;-75
2021/09/13 11:24:11;;;;;;;2.93;1.73;;;26.50;59.90;;;;;;2515672;52;1245466;-72
2021/09/13 11:26:58;;;;;;;3.12;1.80;;;26.50;59.80;;;;;;2345710;53;21821;-75
2021/09/13 11:29:26;;;;;;;3.12;1.73;;;26.60;59.90;;;;;;2350327;53;21018;-73
2021/09/13 11:31:59;;;;;;;2.87;1.90;;;26.70;59.80;;;;;;2563533;52;21516;-74
2021/09/13 11:34:41;;;;;;;3.85;2.00;;;26.80;59.40;;;;;;2338397;53;20989;-72
2021/09/13 11:37:23;;;;;;;3.30;2.12;;;26.90;59.50;;;;;;2426398;53;21122;-75
2021/09/13 11:40:24;;;;;;;3.10;1.83;;;27.00;59.00;;;;;;2351740;52;20942;-74
2021/09/13 11:42:50;;;;;;;4.60;2.33;;;27.00;58.80;;;;;;2346293;53;21076;-73
2021/09/13 11:45:16;;;;;;;4.78;2.05;;;27.00;58.80;;;;;;2345656;53;20934;-73
2021/09/13 11:47:51;;;;;;;3.20;1.60;;;27.10;58.70;;;;;;2346712;53;20945;-73
2021/09/13 11:50:18;;;;;;;3.58;1.70;;;27.10;58.70;;;;;;2349207;53;21010;-73
2021/09/13 11:52:44;;;;;;;3.10;1.80;;;27.10;58.60;;;;;;2346701;53;20938;-72
2021/09/13 11:55:12;;;;;;;3.87;1.77;;;27.20;58.30;;;;;;2351164;52;21465;-73
2021/09/13 11:57:45;;;;;;;3.10;1.92;;;27.20;58.10;;;;;;2333158;53;20989;-73
2021/09/13 12:00:17;;;;;;;3.10;1.70;;;27.20;57.60;;;;;;2344839;53;20919;-74
2021/09/13 12:02:47;;;;;;;3.55;1.62;;;27.20;57.90;;;;;;2347353;53;20973;-73
2021/09/13 12:05:18;;;;;;;3.55;1.75;;;27.30;57.70;;;;;;2353488;52;21098;-75
2021/09/13 12:07:46;;;;;;;4.20;2.08;;;27.30;57.70;;;;;;2339526;53;21215;-72
2021/09/13 12:10:19;;;;;;;4.53;2.10;;;27.30;57.70;;;;;;2438297;52;20934;-72
2021/09/13 12:12:47;;;;;;;4.32;1.80;;;27.40;57.30;;;;;;2387498;52;21006;-73
2021/09/13 12:15:14;;;;;;;3.30;1.60;;;27.40;57.40;;;;;;2345278;53;20977;-75
2021/09/13 12:17:51;;;;;;;3.30;1.60;;;27.40;57.70;;;;;;2394000;52;20942;-74
2021/09/13 12:20:28;;;;;;;2.47;1.33;;;27.50;57.40;;;;;;2473271;52;21010;-75
2021/09/13 12:23:24;;;;;;;3.50;2.10;;;27.60;57.40;;;;;;2402701;52;20933;-75
2021/09/13 12:25:55;;;;;;;3.10;1.33;;;27.70;57.00;;;;;;2358778;52;20983;-74
2021/09/13 12:28:31;;;;;;;2.83;1.50;;;27.70;57.10;;;;;;2438381;52;21056;-72
2021/09/13 12:30:59;;;;;;;2.90;1.55;;;27.80;56.50;;;;;;2392212;52;20993;-73
2021/09/13 12:33:45;;;;;;;3.05;1.67;;;27.80;56.80;;;;;;2346407;53;20949;-74
2021/09/13 12:36:21;;;;;;;2.72;1.50;;;27.90;55.90;;;;;;2376460;52;22174;-73
2021/09/13 12:38:54;;;;;;;3.50;1.40;;;27.90;56.20;;;;;;2355619;52;21083;-76
2021/09/13 12:41:37;;;;;;;2.47;1.45;;;27.90;56.30;;;;;;2345853;53;20922;-74
2021/09/13 12:44:22;;;;;;;2.75;1.35;;;28.00;55.90;;;;;;2346639;52;20961;-77
2021/09/13 12:46:50;;;;;;;2.28;1.37;;;28.00;55.80;;;;;;2388785;52;20958;-74
2021/09/13 12:49:16;;;;;;;3.53;1.55;;;28.00;56.30;;;;;;2349713;52;20946;-74
2021/09/13 12:51:56;;;;;;;2.42;1.35;;;28.10;56.30;;;;;;2346753;53;20974;-76
2021/09/13 12:54:29;;;;;;;2.95;1.70;;;28.10;55.60;;;;;;2439918;52;22154;-74
2021/09/13 12:56:55;;;;;;;2.90;1.60;;;28.20;55.80;;;;;;2346356;53;20937;-74